createdAt,value
2018-09-14T00:00:02.081Z,1020.03
2018-09-14T00:01:02.179Z,1020.04
2018-09-14T00:02:02.289Z,1020.04
2018-09-14T00:03:02.292Z,1020.08
2018-09-14T00:04:02.188Z,1020.06
2018-09-14T00:05:02.715Z,1020.08
2018-09-14T00:06:02.127Z,1020.1
2018-09-14T00:07:02.230Z,1020.1
2018-09-14T00:08:02.111Z,1020.12
2018-09-14T00:09:02.085Z,1020.15
2018-09-14T00:10:02.290Z,1020.12
2018-09-14T00:11:02.506Z,1020.13
2018-09-14T00:12:02.179Z,1020.14
2018-09-14T00:13:02.442Z,1020.13
2018-09-14T00:14:02.314Z,1020.12
2018-09-14T00:15:02.112Z,1020.14
2018-09-14T00:16:02.133Z,1020.13
2018-09-14T00:17:02.230Z,1020.11
2018-09-14T00:18:02.723Z,1020.17
2018-09-14T00:19:02.199Z,1020.1
2018-09-14T00:20:02.501Z,1020.09
2018-09-14T00:21:02.316Z,1020.09
2018-09-14T00:22:02.118Z,1020.11
2018-09-14T00:23:01.937Z,1020.09
2018-09-14T00:24:02.092Z,1020.15
2018-09-14T00:25:02.198Z,1020.11
2018-09-14T00:26:02.151Z,1020.08
2018-09-14T00:27:02.062Z,1020.11
2018-09-14T00:28:02.229Z,1020.09
2018-09-14T00:29:02.150Z,1020.13
2018-09-14T00:30:02.350Z,1020.14
2018-09-14T00:31:02.359Z,1020.1
2018-09-14T00:32:02.271Z,1020.11
2018-09-14T00:33:02.160Z,1020.15
2018-09-14T00:34:02.320Z,1020.1
2018-09-14T00:35:02.250Z,1020.1
2018-09-14T00:36:02.117Z,1020.06
2018-09-14T00:37:02.237Z,1020.08
2018-09-14T00:38:02.254Z,1020.12
2018-09-14T00:39:02.307Z,1020.05
2018-09-14T00:40:02.674Z,1020.07
2018-09-14T00:41:02.156Z,1020.04
2018-09-14T00:42:02.212Z,1020.03
2018-09-14T00:43:02.232Z,1020.04
2018-09-14T00:44:02.300Z,1020.02
2018-09-14T00:45:02.439Z,1020.03
2018-09-14T00:46:02.279Z,1020.07
2018-09-14T00:47:02.511Z,1020.01
2018-09-14T00:48:02.244Z,1020.03
2018-09-14T00:49:02.312Z,1019.99
2018-09-14T00:50:02.411Z,1020.02
2018-09-14T00:51:02.270Z,1020.03
2018-09-14T00:52:02.506Z,1020.01
2018-09-14T00:53:02.159Z,1019.96
2018-09-14T00:54:02.307Z,1020
2018-09-14T00:55:02.530Z,1020.02
2018-09-14T00:56:02.173Z,1020
2018-09-14T00:57:02.184Z,1020.02
2018-09-14T00:58:03.209Z,1020.03
2018-09-14T00:59:02.208Z,1020.02
2018-09-14T01:00:02.228Z,1020.01
2018-09-14T01:01:02.169Z,1020.02
2018-09-14T01:02:02.179Z,1020.03
2018-09-14T01:03:02.288Z,1020.03
2018-09-14T01:04:02.348Z,1020.05
2018-09-14T01:05:02.263Z,1020.03
2018-09-14T01:06:02.521Z,1019.98
2018-09-14T01:07:02.433Z,1020.05
2018-09-14T01:08:02.485Z,1020
2018-09-14T01:09:02.283Z,1019.96
2018-09-14T01:10:02.207Z,1019.98
2018-09-14T01:11:02.255Z,1019.97
2018-09-14T01:12:02.181Z,1019.99
2018-09-14T01:13:02.356Z,1019.98
2018-09-14T01:14:02.088Z,1019.94
2018-09-14T01:15:02.109Z,1019.98
2018-09-14T01:16:02.257Z,1019.97
2018-09-14T01:17:02.277Z,1019.97
2018-09-14T01:18:02.018Z,1019.96
2018-09-14T01:19:02.211Z,1019.98
2018-09-14T01:20:02.332Z,1019.91
2018-09-14T01:21:02.248Z,1019.93
2018-09-14T01:22:02.470Z,1019.97
2018-09-14T01:23:02.217Z,1019.94
2018-09-14T01:24:02.370Z,1019.93
2018-09-14T01:25:02.286Z,1019.89
2018-09-14T01:26:02.298Z,1019.89
2018-09-14T01:27:02.135Z,1019.88
2018-09-14T01:28:02.500Z,1019.87
2018-09-14T01:29:02.352Z,1019.83
2018-09-14T01:30:02.383Z,1019.82
2018-09-14T01:31:02.572Z,1019.8
2018-09-14T01:32:02.143Z,1019.83
2018-09-14T01:33:02.202Z,1019.82
2018-09-14T01:34:02.205Z,1019.84
2018-09-14T01:35:02.515Z,1019.8
2018-09-14T01:36:02.224Z,1019.79
2018-09-14T01:37:02.110Z,1019.75
2018-09-14T01:38:02.634Z,1019.75
2018-09-14T01:39:02.260Z,1019.77
2018-09-14T01:40:02.064Z,1019.76
2018-09-14T01:41:02.201Z,1019.79
2018-09-14T01:42:02.389Z,1019.75
2018-09-14T01:43:02.307Z,1019.76
2018-09-14T01:44:02.249Z,1019.79
2018-09-14T01:45:02.433Z,1019.75
2018-09-14T01:46:02.263Z,1019.79
2018-09-14T01:47:02.014Z,1019.78
2018-09-14T01:48:02.203Z,1019.77
2018-09-14T01:49:02.276Z,1019.78
2018-09-14T01:50:02.197Z,1019.79
2018-09-14T01:51:02.132Z,1019.78
2018-09-14T01:52:01.990Z,1019.81
2018-09-14T01:53:02.157Z,1019.83
2018-09-14T01:54:02.227Z,1019.83
2018-09-14T01:55:02.136Z,1019.8
2018-09-14T01:56:02.304Z,1019.81
2018-09-14T01:57:01.977Z,1019.76
2018-09-14T01:58:02.258Z,1019.81
2018-09-14T01:59:02.218Z,1019.82
2018-09-14T02:00:02.377Z,1019.8
2018-09-14T02:01:02.126Z,1019.77
2018-09-14T02:02:02.366Z,1019.76
2018-09-14T02:03:02.136Z,1019.78
2018-09-14T02:04:01.953Z,1019.77
2018-09-14T02:05:02.078Z,1019.72
2018-09-14T02:06:02.560Z,1019.76
2018-09-14T02:07:02.093Z,1019.71
2018-09-14T02:08:02.942Z,1019.77
2018-09-14T02:09:02.171Z,1019.8
2018-09-14T02:10:02.495Z,1019.78
2018-09-14T02:11:02.354Z,1019.79
2018-09-14T02:12:02.240Z,1019.79
2018-09-14T02:13:02.367Z,1019.8
2018-09-14T02:14:02.119Z,1019.81
2018-09-14T02:15:02.330Z,1019.78
2018-09-14T02:16:02.212Z,1019.81
2018-09-14T02:17:02.186Z,1019.77
2018-09-14T02:18:02.161Z,1019.77
2018-09-14T02:19:02.184Z,1019.77
2018-09-14T02:20:02.165Z,1019.8
2018-09-14T02:21:02.297Z,1019.79
2018-09-14T02:22:02.311Z,1019.76
2018-09-14T02:23:02.281Z,1019.79
2018-09-14T02:24:02.298Z,1019.78
2018-09-14T02:25:02.098Z,1019.8
2018-09-14T02:26:02.104Z,1019.8
2018-09-14T02:27:02.172Z,1019.78
2018-09-14T02:28:02.291Z,1019.8
2018-09-14T02:29:02.278Z,1019.79
2018-09-14T02:30:02.177Z,1019.73
2018-09-14T02:31:02.181Z,1019.78
2018-09-14T02:32:02.302Z,1019.65
2018-09-14T02:33:02.369Z,1019.7
2018-09-14T02:34:02.030Z,1019.64
2018-09-14T02:35:02.131Z,1019.66
2018-09-14T02:36:02.278Z,1019.64
2018-09-14T02:37:02.183Z,1019.69
2018-09-14T02:38:02.127Z,1019.69
2018-09-14T02:39:02.370Z,1019.65
2018-09-14T02:40:02.060Z,1019.68
2018-09-14T02:41:02.070Z,1019.67
2018-09-14T02:42:02.179Z,1019.73
2018-09-14T02:43:02.064Z,1019.72
2018-09-14T02:44:02.542Z,1019.74
2018-09-14T02:45:02.309Z,1019.73
2018-09-14T02:46:02.312Z,1019.77
2018-09-14T02:47:02.417Z,1019.69
2018-09-14T02:48:02.160Z,1019.64
2018-09-14T02:49:02.335Z,1019.7
2018-09-14T02:50:02.401Z,1019.74
2018-09-14T02:51:02.089Z,1019.7
2018-09-14T02:52:02.232Z,1019.71
2018-09-14T02:53:02.161Z,1019.66
2018-09-14T02:54:02.258Z,1019.66
2018-09-14T02:55:02.197Z,1019.62
2018-09-14T02:56:02.129Z,1019.63
2018-09-14T02:57:02.230Z,1019.6
2018-09-14T02:58:02.286Z,1019.65
2018-09-14T02:59:02.093Z,1019.67
2018-09-14T03:00:02.421Z,1019.72
2018-09-14T03:01:02.145Z,1019.72
2018-09-14T03:02:02.079Z,1019.75
2018-09-14T03:03:02.054Z,1019.75
2018-09-14T03:04:02.199Z,1019.69
2018-09-14T03:05:02.239Z,1019.72
2018-09-14T03:06:02.148Z,1019.73
2018-09-14T03:07:02.111Z,1019.76
2018-09-14T03:08:02.260Z,1019.71
2018-09-14T03:09:02.097Z,1019.7
2018-09-14T03:10:02.183Z,1019.75
2018-09-14T03:11:02.184Z,1019.74
2018-09-14T03:12:02.153Z,1019.72
2018-09-14T03:13:02.060Z,1019.72
2018-09-14T03:14:02.220Z,1019.72
2018-09-14T03:15:02.084Z,1019.75
2018-09-14T03:16:02.109Z,1019.75
2018-09-14T03:17:02.118Z,1019.71
2018-09-14T03:18:02.305Z,1019.72
2018-09-14T03:19:02.395Z,1019.73
2018-09-14T03:20:02.203Z,1019.7
2018-09-14T03:21:02.147Z,1019.75
2018-09-14T03:22:02.188Z,1019.7
2018-09-14T03:23:02.072Z,1019.69
2018-09-14T03:24:02.354Z,1019.74
2018-09-14T03:25:02.251Z,1019.72
2018-09-14T03:26:02.184Z,1019.73
2018-09-14T03:27:02.060Z,1019.76
2018-09-14T03:28:02.325Z,1019.76
2018-09-14T03:29:02.388Z,1019.76
2018-09-14T03:30:02.211Z,1019.79
2018-09-14T03:31:02.275Z,1019.78
2018-09-14T03:32:02.048Z,1019.75
2018-09-14T03:33:02.344Z,1019.77
2018-09-14T03:34:02.290Z,1019.79
2018-09-14T03:35:02.171Z,1019.78
2018-09-14T03:36:02.177Z,1019.77
2018-09-14T03:37:02.112Z,1019.78
2018-09-14T03:38:02.229Z,1019.78
2018-09-14T03:39:02.340Z,1019.77
2018-09-14T03:40:02.190Z,1019.8
2018-09-14T03:41:02.361Z,1019.75
2018-09-14T03:42:02.300Z,1019.75
2018-09-14T03:43:02.232Z,1019.74
2018-09-14T03:44:02.281Z,1019.75
2018-09-14T03:45:02.319Z,1019.76
2018-09-14T03:46:02.245Z,1019.74
2018-09-14T03:47:02.575Z,1019.76
2018-09-14T03:48:02.453Z,1019.74
2018-09-14T03:49:02.241Z,1019.78
2018-09-14T03:50:02.285Z,1019.75
2018-09-14T03:51:02.266Z,1019.74
2018-09-14T03:52:02.315Z,1019.75
2018-09-14T03:53:02.306Z,1019.74
2018-09-14T03:54:02.215Z,1019.81
2018-09-14T03:55:02.500Z,1019.76
2018-09-14T03:56:02.313Z,1019.76
2018-09-14T03:57:02.026Z,1019.78
2018-09-14T03:58:02.277Z,1019.81
2018-09-14T03:59:02.312Z,1019.8
2018-09-14T04:00:02.069Z,1019.78
2018-09-14T04:01:02.311Z,1019.78
2018-09-14T04:02:02.085Z,1019.76
2018-09-14T04:03:02.313Z,1019.73
2018-09-14T04:04:02.175Z,1019.78
2018-09-14T04:05:02.157Z,1019.76
2018-09-14T04:06:02.285Z,1019.75
2018-09-14T04:07:02.067Z,1019.7
2018-09-14T04:08:02.320Z,1019.71
2018-09-14T04:09:02.095Z,1019.73
2018-09-14T04:10:02.199Z,1019.72
2018-09-14T04:11:02.180Z,1019.68
2018-09-14T04:12:02.112Z,1019.7
2018-09-14T04:13:02.025Z,1019.75
2018-09-14T04:14:02.561Z,1019.65
2018-09-14T04:15:02.447Z,1019.7
2018-09-14T04:16:02.177Z,1019.71
2018-09-14T04:17:02.233Z,1019.72
2018-09-14T04:18:02.415Z,1019.69
2018-09-14T04:19:02.280Z,1019.65
2018-09-14T04:20:02.145Z,1019.65
2018-09-14T04:21:02.257Z,1019.69
2018-09-14T04:22:02.221Z,1019.63
2018-09-14T04:23:02.296Z,1019.67
2018-09-14T04:24:02.283Z,1019.61
2018-09-14T04:25:02.175Z,1019.63
2018-09-14T04:26:02.105Z,1019.65
2018-09-14T04:27:02.180Z,1019.7
2018-09-14T04:28:02.095Z,1019.71
2018-09-14T04:29:02.227Z,1019.71
2018-09-14T04:30:02.405Z,1019.7
2018-09-14T04:31:02.206Z,1019.72
2018-09-14T04:32:02.185Z,1019.74
2018-09-14T04:33:02.133Z,1019.75
2018-09-14T04:34:02.272Z,1019.78
2018-09-14T04:35:02.112Z,1019.8
2018-09-14T04:36:02.159Z,1019.75
2018-09-14T04:37:02.155Z,1019.78
2018-09-14T04:38:02.423Z,1019.8
2018-09-14T04:39:02.215Z,1019.78
2018-09-14T04:40:02.106Z,1019.81
2018-09-14T04:41:02.156Z,1019.82
2018-09-14T04:42:02.086Z,1019.82
2018-09-14T04:43:02.133Z,1019.82
2018-09-14T04:44:02.282Z,1019.83
2018-09-14T04:45:02.822Z,1019.88
2018-09-14T04:46:02.279Z,1019.87
2018-09-14T04:47:01.989Z,1019.9
2018-09-14T04:48:02.254Z,1019.9
2018-09-14T04:49:02.169Z,1019.93
2018-09-14T04:50:02.154Z,1019.91
2018-09-14T04:51:02.369Z,1019.88
2018-09-14T04:52:02.152Z,1019.91
2018-09-14T04:53:02.377Z,1019.88
2018-09-14T04:54:02.281Z,1019.89
2018-09-14T04:55:02.094Z,1019.93
2018-09-14T04:56:02.200Z,1019.97
2018-09-14T04:57:02.278Z,1019.95
2018-09-14T04:58:02.272Z,1019.95
2018-09-14T04:59:02.310Z,1019.95
2018-09-14T05:00:02.136Z,1019.97
2018-09-14T05:01:02.139Z,1019.99
2018-09-14T05:02:02.149Z,1019.99
2018-09-14T05:03:02.399Z,1019.99
2018-09-14T05:04:02.099Z,1019.95
2018-09-14T05:05:02.229Z,1019.94
2018-09-14T05:06:02.150Z,1019.92
2018-09-14T05:07:02.129Z,1019.99
2018-09-14T05:08:02.443Z,1019.93
2018-09-14T05:09:02.155Z,1019.93
2018-09-14T05:10:02.119Z,1019.95
2018-09-14T05:11:02.469Z,1019.96
2018-09-14T05:12:02.266Z,1019.93
2018-09-14T05:13:02.511Z,1019.93
2018-09-14T05:14:02.196Z,1019.91
2018-09-14T05:15:02.240Z,1019.9
2018-09-14T05:16:02.133Z,1019.96
2018-09-14T05:17:02.554Z,1019.92
2018-09-14T05:18:02.142Z,1019.97
2018-09-14T05:19:02.061Z,1019.94
2018-09-14T05:20:02.247Z,1019.97
2018-09-14T05:21:02.191Z,1019.97
2018-09-14T05:22:02.239Z,1019.95
2018-09-14T05:23:02.204Z,1019.95
2018-09-14T05:24:02.459Z,1019.96
2018-09-14T05:25:02.562Z,1019.97
2018-09-14T05:26:02.348Z,1019.98
2018-09-14T05:27:02.046Z,1019.95
2018-09-14T05:28:02.234Z,1019.99
2018-09-14T05:29:02.231Z,1019.95
2018-09-14T05:30:02.286Z,1019.99
2018-09-14T05:31:02.455Z,1019.99
2018-09-14T05:32:02.735Z,1019.99
2018-09-14T05:33:02.204Z,1020
2018-09-14T05:34:02.512Z,1019.99
2018-09-14T05:35:02.173Z,1019.98
2018-09-14T05:36:02.412Z,1020.01
2018-09-14T05:37:02.187Z,1019.99
2018-09-14T05:38:02.343Z,1020
2018-09-14T05:39:02.250Z,1020
2018-09-14T05:40:02.068Z,1020.06
2018-09-14T05:41:02.053Z,1020.05
2018-09-14T05:42:02.404Z,1020.07
2018-09-14T05:43:02.078Z,1020.07
2018-09-14T05:44:02.129Z,1020.12
2018-09-14T05:45:02.389Z,1020.07
2018-09-14T05:46:02.280Z,1020.11
2018-09-14T05:47:02.065Z,1020.14
2018-09-14T05:48:02.057Z,1020.15
2018-09-14T05:49:02.188Z,1020.15
2018-09-14T05:50:01.969Z,1020.16
2018-09-14T05:51:02.198Z,1020.19
2018-09-14T05:52:02.407Z,1020.2
2018-09-14T05:53:02.189Z,1020.24
2018-09-14T05:54:02.149Z,1020.25
2018-09-14T05:55:02.448Z,1020.3
2018-09-14T05:56:02.152Z,1020.29
2018-09-14T05:57:02.024Z,1020.31
2018-09-14T05:58:02.370Z,1020.3
2018-09-14T05:59:02.173Z,1020.31
2018-09-14T06:00:02.239Z,1020.32
2018-09-14T06:01:02.051Z,1020.27
2018-09-14T06:02:02.350Z,1020.32
2018-09-14T06:03:01.997Z,1020.3
2018-09-14T06:04:02.249Z,1020.31
2018-09-14T06:05:02.205Z,1020.31
2018-09-14T06:06:01.967Z,1020.33
2018-09-14T06:07:02.088Z,1020.33
2018-09-14T06:08:02.094Z,1020.35
2018-09-14T06:09:02.316Z,1020.39
2018-09-14T06:10:02.188Z,1020.4
2018-09-14T06:11:02.360Z,1020.36
2018-09-14T06:12:02.508Z,1020.38
2018-09-14T06:13:02.091Z,1020.38
2018-09-14T06:14:02.411Z,1020.4
2018-09-14T06:15:02.040Z,1020.36
2018-09-14T06:16:02.269Z,1020.35
2018-09-14T06:17:02.723Z,1020.37
2018-09-14T06:18:02.316Z,1020.33
2018-09-14T06:19:02.251Z,1020.41
2018-09-14T06:20:02.081Z,1020.42
2018-09-14T06:21:02.098Z,1020.42
2018-09-14T06:22:02.211Z,1020.38
2018-09-14T06:23:02.652Z,1020.39
2018-09-14T06:24:02.436Z,1020.44
2018-09-14T06:25:02.720Z,1020.42
2018-09-14T06:26:02.207Z,1020.44
2018-09-14T06:27:02.297Z,1020.46
2018-09-14T06:28:02.275Z,1020.45
2018-09-14T06:29:02.013Z,1020.47
2018-09-14T06:30:02.351Z,1020.48
2018-09-14T06:31:02.203Z,1020.48
2018-09-14T06:32:02.000Z,1020.51
2018-09-14T06:33:02.317Z,1020.51
2018-09-14T06:34:02.296Z,1020.54
2018-09-14T06:35:02.051Z,1020.5
2018-09-14T06:36:02.088Z,1020.54
2018-09-14T06:37:02.918Z,1020.53
2018-09-14T06:38:02.192Z,1020.53
2018-09-14T06:39:02.025Z,1020.53
2018-09-14T06:40:02.104Z,1020.57
2018-09-14T06:41:02.438Z,1020.52
2018-09-14T06:42:02.244Z,1020.54
2018-09-14T06:43:02.041Z,1020.53
2018-09-14T06:44:02.053Z,1020.48
2018-09-14T06:45:02.429Z,1020.49
2018-09-14T06:46:02.390Z,1020.47
2018-09-14T06:47:01.995Z,1020.46
2018-09-14T06:48:02.209Z,1020.52
2018-09-14T06:49:02.074Z,1020.49
2018-09-14T06:50:02.426Z,1020.49
2018-09-14T06:51:02.059Z,1020.47
2018-09-14T06:52:03.492Z,1020.49
2018-09-14T06:53:01.997Z,1020.47
2018-09-14T06:54:02.134Z,1020.51
2018-09-14T06:55:02.389Z,1020.49
2018-09-14T06:56:02.148Z,1020.54
2018-09-14T06:57:02.198Z,1020.48
2018-09-14T06:58:02.268Z,1020.5
2018-09-14T06:59:02.389Z,1020.56
2018-09-14T07:00:02.513Z,1020.55
2018-09-14T07:01:02.282Z,1020.57
2018-09-14T07:02:02.201Z,1020.57
2018-09-14T07:03:02.078Z,1020.58
2018-09-14T07:04:02.068Z,1020.53
2018-09-14T07:05:02.331Z,1020.56
2018-09-14T07:06:02.013Z,1020.51
2018-09-14T07:07:02.244Z,1020.53
2018-09-14T07:08:02.030Z,1020.52
2018-09-14T07:09:02.328Z,1020.55
2018-09-14T07:10:02.086Z,1020.55
2018-09-14T07:11:02.045Z,1020.55
2018-09-14T07:12:02.467Z,1020.52
2018-09-14T07:13:02.174Z,1020.56
2018-09-14T07:14:02.126Z,1020.54
2018-09-14T07:15:02.123Z,1020.5
2018-09-14T07:16:02.196Z,1020.55
2018-09-14T07:17:02.128Z,1020.56
2018-09-14T07:18:02.220Z,1020.56
2018-09-14T07:19:02.315Z,1020.57
2018-09-14T07:20:02.029Z,1020.58
2018-09-14T07:21:02.285Z,1020.53
2018-09-14T07:22:02.320Z,1020.48
2018-09-14T07:23:02.237Z,1020.55
2018-09-14T07:24:01.979Z,1020.55
2018-09-14T07:25:02.308Z,1020.57
2018-09-14T07:26:02.227Z,1020.53
2018-09-14T07:27:02.101Z,1020.59
2018-09-14T07:28:02.169Z,1020.58
2018-09-14T07:29:03.809Z,1020.54
2018-09-14T07:30:02.701Z,1020.61
2018-09-14T07:31:02.021Z,1020.57
2018-09-14T07:32:02.301Z,1020.61
2018-09-14T07:33:02.066Z,1020.59
2018-09-14T07:34:02.452Z,1020.62
2018-09-14T07:35:02.147Z,1020.55
2018-09-14T07:36:02.455Z,1020.6
2018-09-14T07:37:02.383Z,1020.62
2018-09-14T07:38:02.077Z,1020.69
2018-09-14T07:39:02.053Z,1020.67
2018-09-14T07:40:01.983Z,1020.66
2018-09-14T07:41:02.152Z,1020.68
2018-09-14T07:42:02.129Z,1020.69
2018-09-14T07:43:02.719Z,1020.68
2018-09-14T07:44:02.055Z,1020.7
2018-09-14T07:45:02.171Z,1020.7
2018-09-14T07:46:02.146Z,1020.7
2018-09-14T07:47:02.009Z,1020.71
2018-09-14T07:48:02.057Z,1020.68
2018-09-14T07:49:01.990Z,1020.71
2018-09-14T07:50:02.117Z,1020.71
2018-09-14T07:51:02.025Z,1020.73
2018-09-14T07:52:02.090Z,1020.74
2018-09-14T07:53:02.495Z,1020.71
2018-09-14T07:54:02.009Z,1020.76
2018-09-14T07:55:02.184Z,1020.78
2018-09-14T07:56:02.135Z,1020.75
2018-09-14T07:57:02.170Z,1020.76
2018-09-14T07:58:02.171Z,1020.78
2018-09-14T07:59:02.084Z,1020.81
2018-09-14T08:00:02.111Z,1020.8
2018-09-14T08:01:02.051Z,1020.79
2018-09-14T08:02:02.188Z,1020.9
2018-09-14T08:03:02.162Z,1020.83
2018-09-14T08:04:02.128Z,1020.84
2018-09-14T08:05:02.066Z,1020.82
2018-09-14T08:06:02.194Z,1020.86
2018-09-14T08:07:02.440Z,1020.82
2018-09-14T08:08:02.239Z,1020.89
2018-09-14T08:09:02.280Z,1020.81
2018-09-14T08:10:02.243Z,1020.8
2018-09-14T08:11:02.166Z,1020.78
2018-09-14T08:12:02.463Z,1020.81
2018-09-14T08:13:02.178Z,1020.8
2018-09-14T08:14:02.246Z,1020.85
2018-09-14T08:15:02.283Z,1020.88
2018-09-14T08:16:02.289Z,1020.85
2018-09-14T08:17:02.395Z,1020.78
2018-09-14T08:18:02.422Z,1020.84
2018-09-14T08:19:02.390Z,1020.83
2018-09-14T08:20:02.561Z,1020.84
2018-09-14T08:21:02.490Z,1020.87
2018-09-14T08:22:02.487Z,1020.88
2018-09-14T08:23:02.224Z,1020.91
2018-09-14T08:24:02.122Z,1020.87
2018-09-14T08:25:02.368Z,1020.94
2018-09-14T08:26:02.192Z,1020.93
2018-09-14T08:27:02.638Z,1021.01
2018-09-14T08:28:02.295Z,1020.95
2018-09-14T08:29:02.068Z,1020.95
2018-09-14T08:30:02.521Z,1020.98
2018-09-14T08:31:02.149Z,1020.94
2018-09-14T08:32:02.283Z,1020.96
2018-09-14T08:33:02.101Z,1020.94
2018-09-14T08:34:02.480Z,1020.99
2018-09-14T08:35:02.181Z,1020.98
2018-09-14T08:36:02.019Z,1020.98
2018-09-14T08:37:02.349Z,1020.97
2018-09-14T08:38:02.230Z,1020.99
2018-09-14T08:39:02.450Z,1020.98
2018-09-14T08:40:02.371Z,1021.03
2018-09-14T08:41:02.069Z,1021
2018-09-14T08:42:02.143Z,1021.04
2018-09-14T08:43:02.058Z,1021.02
2018-09-14T08:44:02.130Z,1021.07
2018-09-14T08:45:01.848Z,1021.04
2018-09-14T08:46:02.580Z,1021.11
2018-09-14T08:47:02.283Z,1021.1
2018-09-14T08:48:02.687Z,1021.11
2018-09-14T08:49:02.247Z,1021.1
2018-09-14T08:50:02.525Z,1021.14
2018-09-14T08:51:02.296Z,1021.14
2018-09-14T08:52:02.027Z,1021.14
2018-09-14T08:53:02.198Z,1021.16
2018-09-14T08:54:02.166Z,1021.13
2018-09-14T08:55:02.560Z,1021.14
2018-09-14T08:56:02.226Z,1021.13
2018-09-14T08:57:02.123Z,1021.12
2018-09-14T08:58:03.552Z,1021.17
2018-09-14T08:59:02.109Z,1021.13
2018-09-14T09:00:02.217Z,1021.17
2018-09-14T09:01:02.127Z,1021.15
2018-09-14T09:02:02.136Z,1021.23
2018-09-14T09:03:02.012Z,1021.19
2018-09-14T09:04:02.267Z,1021.15
2018-09-14T09:05:02.213Z,1021.18
2018-09-14T09:06:02.187Z,1021.18
2018-09-14T09:07:02.203Z,1021.19
2018-09-14T09:08:02.061Z,1021.2
2018-09-14T09:09:02.235Z,1021.2
2018-09-14T09:10:02.837Z,1021.19
2018-09-14T09:11:01.995Z,1021.17
2018-09-14T09:12:02.070Z,1021.2
2018-09-14T09:13:02.134Z,1021.19
2018-09-14T09:14:02.238Z,1021.22
2018-09-14T09:15:01.943Z,1021.22
2018-09-14T09:16:03.404Z,1021.24
2018-09-14T09:17:02.136Z,1021.26
2018-09-14T09:18:02.184Z,1021.23
2018-09-14T09:19:02.008Z,1021.21
2018-09-14T09:20:02.153Z,1021.22
2018-09-14T09:21:01.978Z,1021.21
2018-09-14T09:22:02.799Z,1021.2
2018-09-14T09:23:02.121Z,1021.22
2018-09-14T09:24:02.125Z,1021.22
2018-09-14T09:25:02.138Z,1021.18
2018-09-14T09:26:01.983Z,1021.21
2018-09-14T09:27:02.058Z,1021.19
2018-09-14T09:28:02.219Z,1021.19
2018-09-14T09:29:02.215Z,1021.2
2018-09-14T09:30:02.361Z,1021.16
2018-09-14T09:31:02.108Z,1021.17
2018-09-14T09:32:03.126Z,1021.22
2018-09-14T09:33:02.358Z,1021.17
2018-09-14T09:34:02.000Z,1021.18
2018-09-14T09:35:02.871Z,1021.23
2018-09-14T09:36:02.091Z,1021.21
2018-09-14T09:37:02.314Z,1021.16
2018-09-14T09:38:01.978Z,1021.18
2018-09-14T09:39:02.059Z,1021.19
2018-09-14T09:40:02.104Z,1021.16
2018-09-14T09:41:02.195Z,1021.15
2018-09-14T09:42:02.347Z,1021.14
2018-09-14T09:43:02.317Z,1021.16
2018-09-14T09:44:02.534Z,1021.15
2018-09-14T09:45:02.145Z,1021.18
2018-09-14T09:46:02.119Z,1021.19
2018-09-14T09:47:02.213Z,1021.16
2018-09-14T09:48:02.217Z,1021.17
2018-09-14T09:49:02.924Z,1021.18
2018-09-14T09:50:02.219Z,1021.2
2018-09-14T09:51:02.343Z,1021.21
2018-09-14T09:52:02.130Z,1021.2
2018-09-14T09:53:02.093Z,1021.25
2018-09-14T09:54:02.002Z,1021.25
2018-09-14T09:55:02.198Z,1021.26
2018-09-14T09:56:01.999Z,1021.25
2018-09-14T09:57:02.157Z,1021.23
2018-09-14T09:58:02.155Z,1021.24
2018-09-14T09:59:02.016Z,1021.21
2018-09-14T10:00:03.584Z,1021.25
2018-09-14T10:01:02.398Z,1021.26
2018-09-14T10:02:01.952Z,1021.28
2018-09-14T10:03:02.304Z,1021.27
2018-09-14T10:04:02.429Z,1021.24
2018-09-14T10:05:02.324Z,1021.27
2018-09-14T10:06:02.036Z,1021.26
2018-09-14T10:07:02.207Z,1021.29
2018-09-14T10:08:02.105Z,1021.22
2018-09-14T10:09:02.245Z,1021.18
2018-09-14T10:10:02.148Z,1021.25
2018-09-14T10:11:02.193Z,1021.27
2018-09-14T10:12:02.196Z,1021.22
2018-09-14T10:13:02.520Z,1021.23
2018-09-14T10:14:02.096Z,1021.24
2018-09-14T10:15:02.725Z,1021.25
2018-09-14T10:16:02.274Z,1021.23
2018-09-14T10:17:02.169Z,1021.25
2018-09-14T10:18:01.938Z,1021.27
2018-09-14T10:19:01.966Z,1021.22
2018-09-14T10:20:02.001Z,1021.24
2018-09-14T10:21:02.586Z,1021.2
2018-09-14T10:22:01.895Z,1021.2
2018-09-14T10:23:02.230Z,1021.22
2018-09-14T10:24:02.107Z,1021.21
2018-09-14T10:25:02.080Z,1021.17
2018-09-14T10:26:02.024Z,1021.14
2018-09-14T10:27:02.364Z,1021.16
2018-09-14T10:28:01.877Z,1021.15
2018-09-14T10:29:02.388Z,1021.19
2018-09-14T10:30:02.387Z,1021.12
2018-09-14T10:31:01.942Z,1021.13
2018-09-14T10:32:01.953Z,1021.09
2018-09-14T10:33:02.186Z,1021.09
2018-09-14T10:34:02.363Z,1021.09
2018-09-14T10:35:02.103Z,1021.08
2018-09-14T10:36:01.989Z,1021.07
2018-09-14T10:37:02.405Z,1021.03
2018-09-14T10:38:01.949Z,1021.04
2018-09-14T10:39:02.087Z,1020.97
2018-09-14T10:40:02.258Z,1020.99
2018-09-14T10:41:02.085Z,1020.97
2018-09-14T10:42:01.970Z,1020.97
2018-09-14T10:43:01.977Z,1020.99
2018-09-14T10:44:01.941Z,1020.99
2018-09-14T10:45:02.173Z,1020.96
2018-09-14T10:46:01.985Z,1020.97
2018-09-14T10:47:02.036Z,1020.97
2018-09-14T10:48:01.977Z,1021.01
2018-09-14T10:49:01.960Z,1020.99
2018-09-14T10:50:02.213Z,1020.99
2018-09-14T10:51:02.372Z,1020.97
2018-09-14T10:52:02.085Z,1020.97
2018-09-14T10:53:02.147Z,1020.94
2018-09-14T10:54:02.122Z,1020.97
2018-09-14T10:55:02.149Z,1020.96
2018-09-14T10:56:02.045Z,1020.93
2018-09-14T10:57:02.269Z,1020.96
2018-09-14T10:58:02.039Z,1020.95
2018-09-14T10:59:02.992Z,1020.94
2018-09-14T11:00:01.920Z,1020.95
2018-09-14T11:01:02.352Z,1020.93
2018-09-14T11:02:01.961Z,1020.95
2018-09-14T11:03:02.195Z,1020.93
2018-09-14T11:04:02.394Z,1020.96
2018-09-14T11:05:02.155Z,1020.97
2018-09-14T11:06:02.000Z,1020.95
2018-09-14T11:07:02.532Z,1020.96
2018-09-14T11:08:01.844Z,1020.96
2018-09-14T11:09:02.215Z,1020.98
2018-09-14T11:10:02.433Z,1020.91
2018-09-14T11:11:02.147Z,1020.96
2018-09-14T11:12:02.015Z,1020.89
2018-09-14T11:13:02.538Z,1020.95
2018-09-14T11:14:02.189Z,1020.91
2018-09-14T11:15:02.983Z,1020.94
2018-09-14T11:16:02.052Z,1020.93
2018-09-14T11:17:02.051Z,1020.91
2018-09-14T11:18:02.008Z,1020.94
2018-09-14T11:19:02.437Z,1020.94
2018-09-14T11:20:02.180Z,1020.93
2018-09-14T11:21:02.151Z,1020.92
2018-09-14T11:22:02.005Z,1020.91
2018-09-14T11:23:02.217Z,1020.92
2018-09-14T11:24:02.039Z,1020.92
2018-09-14T11:25:02.515Z,1020.88
2018-09-14T11:26:02.152Z,1020.89
2018-09-14T11:27:02.305Z,1020.83
2018-09-14T11:28:02.437Z,1020.82
2018-09-14T11:29:02.267Z,1020.88
2018-09-14T11:30:01.888Z,1020.85
2018-09-14T11:31:02.191Z,1020.89
2018-09-14T11:32:02.092Z,1020.86
2018-09-14T11:33:02.312Z,1020.86
2018-09-14T11:34:02.027Z,1020.86
2018-09-14T11:35:02.223Z,1020.88
2018-09-14T11:36:02.332Z,1020.89
2018-09-14T11:37:02.371Z,1020.86
2018-09-14T11:38:02.739Z,1020.83
2018-09-14T11:39:02.190Z,1020.88
2018-09-14T11:40:02.622Z,1020.84
2018-09-14T11:41:02.351Z,1020.82
2018-09-14T11:42:02.252Z,1020.81
2018-09-14T11:43:02.077Z,1020.82
2018-09-14T11:44:02.040Z,1020.84
2018-09-14T11:45:02.332Z,1020.78
2018-09-14T11:46:02.153Z,1020.77
2018-09-14T11:47:02.322Z,1020.73
2018-09-14T11:48:02.911Z,1020.79
2018-09-14T11:49:02.159Z,1020.76
2018-09-14T11:50:02.100Z,1020.76
2018-09-14T11:51:02.136Z,1020.72
2018-09-14T11:52:01.986Z,1020.72
2018-09-14T11:53:02.272Z,1020.69
2018-09-14T11:54:02.149Z,1020.71
2018-09-14T11:55:02.131Z,1020.7
2018-09-14T11:56:01.938Z,1020.67
2018-09-14T11:57:02.027Z,1020.71
2018-09-14T11:58:01.939Z,1020.7
2018-09-14T11:59:01.989Z,1020.68
2018-09-14T12:00:01.968Z,1020.66
2018-09-14T12:01:02.191Z,1020.62
2018-09-14T12:02:01.951Z,1020.57
2018-09-14T12:03:02.398Z,1020.6
2018-09-14T12:04:02.298Z,1020.57
2018-09-14T12:05:02.039Z,1020.59
2018-09-14T12:06:01.938Z,1020.54
2018-09-14T12:07:02.102Z,1020.59
2018-09-14T12:08:01.906Z,1020.58